Time;durP1;ratioP1;P1;durP2;ratioP2;P2;SDS_P1;SDS_P2;PMS_P1;PMS_P2;Temp;Humidity;BMP_temperature;BMP_pressure;BME280_temperature;BME280_humidity;BME280_pressure;Samples;Min_cycle;Max_cycle;Signal;HPM_P1;HPM_P2
2023/09/06 00:01:12;;;;;;;14.45;7.82;;;;;;;;;;4371267;32;59281;-62
2023/09/06 00:03:58;;;;;;;13.55;7.47;;;;;;;;;;4381604;32;70659;-63
2023/09/06 00:06:46;;;;;;;12.55;7.78;;;;;;;;;;4381565;32;69132;-63
2023/09/06 00:09:33;;;;;;;;;;;;;;;;;;4381927;32;67872;-62
2023/09/06 00:12:22;;;;;;;16.25;8.60;;;;;;;;;;4371464;32;59827;-62
2023/09/06 00:15:09;;;;;;;12.23;7.53;;;;;;;;;;4381568;32;70683;-62
2023/09/06 00:17:56;;;;;;;12.23;7.97;;;;;;;;;;4382612;32;69443;-64
2023/09/06 00:20:45;;;;;;;13.50;7.87;;;;;;;;;;4382674;32;67505;-63
2023/09/06 00:23:34;;;;;;;14.77;8.15;;;;;;;;;;4382597;32;71761;-62
2023/09/06 00:26:26;;;;;;;15.93;7.72;;;;;;;;;;4381208;32;64864;-63
2023/09/06 00:29:15;;;;;;;12.15;8.32;;;;;;;;;;4381503;32;67790;-62
2023/09/06 00:32:02;;;;;;;12.10;7.80;;;;;;;;;;4382662;32;59176;-64
2023/09/06 00:34:50;;;;;;;12.63;7.87;;;;;;;;;;4369916;32;70268;-63
2023/09/06 00:37:39;;;;;;;12.15;7.62;;;;;;;;;;4370594;32;66018;-62
2023/09/06 00:40:26;;;;;;;14.18;8.90;;;;;;;;;;4381265;32;68030;-63
2023/09/06 00:43:13;;;;;;;13.23;7.53;;;;;;;;;;3847364;37;43168;-63
2023/09/06 00:46:06;;;;;;;11.70;7.70;;;;;;;;;;4398490;32;59883;-63
2023/09/06 00:48:55;;;;;;;11.45;7.80;;;;;;;;;;4399670;32;70580;-63
2023/09/06 00:51:54;;;;;;;14.18;8.20;;;;;;;;;;4409752;32;68274;-62
2023/09/06 00:54:46;;;;;;;16.27;8.75;;;;;;;;;;4410971;32;67622;-63
2023/09/06 00:57:40;;;;;;;12.77;7.93;;;;;;;;;;4410829;32;71705;-63
2023/09/06 01:00:26;;;;;;;13.70;8.15;;;;;;;;;;4387853;32;66813;-63
2023/09/06 01:03:17;;;;;;;12.15;7.70;;;;;;;;;;4411090;32;67302;-62
2023/09/06 01:06:24;;;;;;;13.05;8.10;;;;;;;;;;4409463;32;59969;-62
2023/09/06 01:09:10;;;;;;;12.02;7.25;;;;;;;;;;4409423;32;71733;-63
2023/09/06 01:11:57;;;;;;;;;;;;;;;;;;4409788;32;65013;-62
2023/09/06 01:14:46;;;;;;;15.23;8.40;;;;;;;;;;4399160;32;67578;-63
2023/09/06 01:17:34;;;;;;;15.80;8.88;;;;;;;;;;4409257;32;61019;-63
2023/09/06 01:20:43;;;;;;;11.43;7.43;;;;;;;;;;4410497;32;70425;-62
2023/09/06 01:23:40;;;;;;;10.60;6.55;;;;;;;;;;4408670;32;70450;-63
2023/09/06 01:26:31;;;;;;;10.68;7.10;;;;;;;;;;4409379;32;67508;-62
2023/09/06 01:29:18;;;;;;;14.75;7.72;;;;;;;;;;4409166;32;70702;-62
2023/09/06 01:32:06;;;;;;;12.80;6.90;;;;;;;;;;4398829;32;65930;-63
2023/09/06 01:34:54;;;;;;;12.68;7.30;;;;;;;;;;4409182;32;69365;-63
2023/09/06 01:37:43;;;;;;;10.70;6.47;;;;;;;;;;4398768;32;66681;-62
2023/09/06 01:40:30;;;;;;;11.95;7.62;;;;;;;;;;4408986;32;70412;-63
2023/09/06 01:43:18;;;;;;;17.05;8.38;;;;;;;;;;4410380;32;65977;-62
2023/09/06 01:46:07;;;;;;;16.25;8.18;;;;;;;;;;4410431;32;66577;-63
2023/09/06 01:48:59;;;;;;;10.32;7.10;;;;;;;;;;4398618;32;60686;-62
2023/09/06 01:51:45;;;;;;;11.50;6.75;;;;;;;;;;4409969;32;69671;-62
2023/09/06 01:54:32;;;;;;;14.38;7.50;;;;;;;;;;4398509;32;69371;-62
2023/09/06 01:57:19;;;;;;;9.98;6.30;;;;;;;;;;4398703;32;66718;-63
2023/09/06 02:03:16;;;;;;;10.90;6.93;;;;;;;;;;4399808;32;69755;-62
2023/09/06 02:06:04;;;;;;;;;;;;;;;;;;4398973;32;69428;-63
2023/09/06 02:08:51;;;;;;;13.80;7.22;;;;;;;;;;4398802;32;66875;-62
2023/09/06 02:11:38;;;;;;;15.70;6.82;;;;;;;;;;4399602;32;71761;-63
2023/09/06 02:14:27;;;;;;;8.32;5.90;;;;;;;;;;4398183;32;66707;-62
2023/09/06 02:17:18;;;;;;;12.43;6.90;;;;;;;;;;4387457;32;68257;-62
2023/09/06 02:20:19;;;;;;;10.30;6.78;;;;;;;;;;4398131;32;61050;-63
2023/09/06 02:23:07;;;;;;;8.05;5.60;;;;;;;;;;4377875;32;70532;-62
2023/09/06 02:25:53;;;;;;;9.50;5.18;;;;;;;;;;4398467;32;65758;-63
2023/09/06 02:28:39;;;;;;;8.10;5.60;;;;;;;;;;4399745;32;66640;-63
2023/09/06 02:31:28;;;;;;;;;;;;;;;;;;4400204;32;59094;-63
2023/09/06 02:34:19;;;;;;;7.05;4.80;;;;;;;;;;4398420;32;70354;-63
2023/09/06 02:37:06;;;;;;;11.43;5.75;;;;;;;;;;4399604;32;69238;-63
2023/09/06 02:40:00;;;;;;;8.88;5.68;;;;;;;;;;4398177;32;66535;-62
2023/09/06 02:45:38;;;;;;;9.20;5.60;;;;;;;;;;3847570;37;43850;-64
2023/09/06 02:48:27;;;;;;;9.88;5.80;;;;;;;;;;4410074;32;58776;-63
2023/09/06 02:51:15;;;;;;;8.90;5.78;;;;;;;;;;4409744;32;70379;-62
2023/09/06 02:54:02;;;;;;;10.93;5.70;;;;;;;;;;4409874;32;69135;-63
2023/09/06 02:56:49;;;;;;;8.80;5.65;;;;;;;;;;4409777;32;67749;-63
2023/09/06 02:59:38;;;;;;;11.57;6.05;;;;;;;;;;4409106;32;72034;-63
2023/09/06 03:02:24;;;;;;;8.90;5.35;;;;;;;;;;4410932;32;65716;-62
2023/09/06 03:08:02;;;;;;;9.60;6.00;;;;;;;;;;3847654;37;43839;-63
2023/09/06 03:10:49;;;;;;;7.05;5.10;;;;;;;;;;4411734;32;59127;-63
2023/09/06 03:13:38;;;;;;;7.65;5.15;;;;;;;;;;4399893;32;70085;-63
2023/09/06 03:16:31;;;;;;;9.25;5.70;;;;;;;;;;4400437;32;68480;-63
2023/09/06 03:19:27;;;;;;;10.35;5.28;;;;;;;;;;4413014;32;67670;-63
2023/09/06 03:22:20;;;;;;;8.30;5.35;;;;;;;;;;4409785;32;71786;-63
2023/09/06 03:25:14;;;;;;;8.80;5.35;;;;;;;;;;4410961;32;64911;-62
2023/09/06 03:28:08;;;;;;;8.15;5.00;;;;;;;;;;4411252;32;66337;-63
2023/09/06 03:30:58;;;;;;;7.97;5.45;;;;;;;;;;4399232;32;59291;-63
2023/09/06 03:33:50;;;;;;;9.00;5.68;;;;;;;;;;4409098;32;72300;-63
2023/09/06 03:36:40;;;;;;;7.20;4.57;;;;;;;;;;4411094;32;64991;-63
2023/09/06 03:39:29;;;;;;;9.52;5.00;;;;;;;;;;4398231;32;68873;-63
2023/09/06 03:42:15;;;;;;;7.57;4.80;;;;;;;;;;4409705;32;59199;-63
2023/09/06 03:45:03;;;;;;;10.25;4.75;;;;;;;;;;4409631;32;70687;-63
2023/09/06 03:47:52;;;;;;;7.32;4.70;;;;;;;;;;4410647;32;69192;-63
2023/09/06 03:50:46;;;;;;;8.52;4.37;;;;;;;;;;4409204;32;67608;-63
2023/09/06 03:53:37;;;;;;;8.07;4.72;;;;;;;;;;4409428;32;70696;-63
2023/09/06 03:56:25;;;;;;;9.43;4.53;;;;;;;;;;4410813;32;65787;-63
2023/09/06 03:59:15;;;;;;;7.07;4.22;;;;;;;;;;4398958;32;69385;-63
2023/09/06 04:02:13;;;;;;;7.57;4.72;;;;;;;;;;4410376;32;67456;-63
2023/09/06 04:05:02;;;;;;;6.97;4.82;;;;;;;;;;4410238;32;71937;-63
2023/09/06 04:07:50;;;;;;;7.95;4.47;;;;;;;;;;4397838;32;65882;-63
2023/09/06 04:10:44;;;;;;;8.82;4.78;;;;;;;;;;4410513;32;67655;-63
2023/09/06 04:13:35;;;;;;;8.93;5.47;;;;;;;;;;4408393;32;59888;-63
2023/09/06 04:16:27;;;;;;;7.68;4.37;;;;;;;;;;4409101;32;70447;-63
2023/09/06 04:19:18;;;;;;;7.32;5.15;;;;;;;;;;4399056;32;69263;-63
2023/09/06 04:22:07;;;;;;;9.00;4.90;;;;;;;;;;4388204;32;67720;-63
2023/09/06 04:25:00;;;;;;;9.40;5.28;;;;;;;;;;4399221;32;60227;-63
2023/09/06 04:27:55;;;;;;;9.05;5.45;;;;;;;;;;4397973;32;71292;-63
2023/09/06 04:30:47;;;;;;;10.23;6.07;;;;;;;;;;4398547;32;69371;-63
2023/09/06 04:33:38;;;;;;;8.50;6.30;;;;;;;;;;4398639;32;66661;-63
2023/09/06 04:36:27;;;;;;;11.48;6.12;;;;;;;;;;4398386;32;71921;-63
2023/09/06 04:39:20;;;;;;;11.05;6.60;;;;;;;;;;4387324;32;67251;-63
2023/09/06 04:42:11;;;;;;;13.02;7.20;;;;;;;;;;4398537;32;66782;-63
2023/09/06 04:45:09;;;;;;;8.77;6.50;;;;;;;;;;4389268;32;59282;-63
2023/09/06 04:48:02;;;;;;;9.17;6.37;;;;;;;;;;4398149;32;69373;-63
2023/09/06 04:50:52;;;;;;;12.52;6.20;;;;;;;;;;4387840;32;65905;-63
2023/09/06 04:53:41;;;;;;;11.65;6.10;;;;;;;;;;4398336;32;66608;-63
2023/09/06 04:56:36;;;;;;;13.05;6.32;;;;;;;;;;4398728;32;59323;-62
2023/09/06 04:59:27;;;;;;;;;;;;;;;;;;4387781;32;70623;-63
2023/09/06 05:02:17;;;;;;;11.12;5.82;;;;;;;;;;4398391;32;68475;-63
2023/09/06 05:05:09;;;;;;;9.40;5.55;;;;;;;;;;4376725;32;67286;-62
2023/09/06 05:07:58;;;;;;;;;;;;;;;;;;4398118;32;71768;-63
2023/09/06 05:10:51;;;;;;;8.60;5.32;;;;;;;;;;4399412;32;66183;-62
2023/09/06 05:13:43;;;;;;;10.55;5.82;;;;;;;;;;4387954;32;67952;-62
2023/09/06 05:16:31;;;;;;;8.63;5.18;;;;;;;;;;4397597;32;68028;-62
2023/09/06 05:19:27;;;;;;;9.52;4.90;;;;;;;;;;4376099;32;72908;-63
2023/09/06 05:22:14;;;;;;;9.02;5.80;;;;;;;;;;4398004;32;66711;-63
2023/09/06 05:25:03;;;;;;;9.20;5.40;;;;;;;;;;4399340;32;66651;-63
2023/09/06 05:27:58;;;;;;;6.20;4.93;;;;;;;;;;4397821;32;61091;-63
2023/09/06 05:30:49;;;;;;;;;;;;;;;;;;4377878;32;70982;-63
2023/09/06 05:33:36;;;;;;;6.78;4.85;;;;;;;;;;4376631;32;69684;-63
2023/09/06 05:36:25;;;;;;;6.43;4.22;;;;;;;;;;4375794;32;68450;-63
2023/09/06 05:39:12;;;;;;;7.10;4.28;;;;;;;;;;4386816;32;59683;-63
2023/09/06 05:42:00;;;;;;;7.18;4.55;;;;;;;;;;4386425;32;70634;-63
2023/09/06 05:44:49;;;;;;;10.13;4.78;;;;;;;;;;4396537;32;68814;-62
2023/09/06 05:47:37;;;;;;;6.87;4.45;;;;;;;;;;4386849;32;66566;-63
2023/09/06 05:50:30;;;;;;;6.75;4.57;;;;;;;;;;4387309;32;70871;-63
2023/09/06 05:53:26;;;;;;;6.97;4.50;;;;;;;;;;4397709;32;64985;-63
2023/09/06 05:56:12;;;;;;;9.18;4.90;;;;;;;;;;4385096;32;68552;-64
2023/09/06 05:59:03;;;;;;;7.93;4.45;;;;;;;;;;4396608;32;60000;-63
2023/09/06 06:01:49;;;;;;;;;;;;;;;;;;4397520;32;69372;-63
2023/09/06 06:04:39;;;;;;;7.07;4.68;;;;;;;;;;4386535;32;65200;-63
2023/09/06 06:07:27;;;;;;;8.18;5.10;;;;;;;;;;4396924;32;67808;-63
2023/09/06 06:10:20;;;;;;;8.30;4.75;;;;;;;;;;4397461;32;59035;-62
2023/09/06 06:13:08;;;;;;;8.38;4.65;;;;;;;;;;4386376;32;70801;-64
2023/09/06 06:15:56;;;;;;;12.82;4.72;;;;;;;;;;4386176;32;68868;-62
2023/09/06 06:18:43;;;;;;;8.07;5.18;;;;;;;;;;4398251;32;67626;-64
2023/09/06 06:21:31;;;;;;;8.70;5.07;;;;;;;;;;4397354;32;71806;-63
2023/09/06 06:24:17;;;;;;;8.65;5.10;;;;;;;;;;4398504;32;65786;-63
2023/09/06 06:27:05;;;;;;;7.70;4.68;;;;;;;;;;4396668;32;68421;-63
2023/09/06 06:29:55;;;;;;;6.50;4.60;;;;;;;;;;4398417;32;67844;-63
2023/09/06 06:32:41;;;;;;;7.35;4.78;;;;;;;;;;4398082;32;70838;-63
2023/09/06 06:35:28;;;;;;;6.12;4.15;;;;;;;;;;4397251;32;66283;-63
2023/09/06 06:38:18;;;;;;;7.18;4.72;;;;;;;;;;4398748;32;67375;-63
2023/09/06 06:41:04;;;;;;;7.35;4.62;;;;;;;;;;4398079;32;60135;-63
2023/09/06 06:43:52;;;;;;;7.40;4.65;;;;;;;;;;4396821;32;70846;-63
2023/09/06 06:46:41;;;;;;;6.65;4.70;;;;;;;;;;4396478;32;70326;-63
2023/09/06 06:49:28;;;;;;;6.25;4.18;;;;;;;;;;4397005;32;67543;-63
2023/09/06 06:52:15;;;;;;;6.80;4.32;;;;;;;;;;4385601;32;71922;-63
2023/09/06 06:55:03;;;;;;;7.18;4.80;;;;;;;;;;4398091;32;69637;-63
2023/09/06 06:57:52;;;;;;;6.12;4.18;;;;;;;;;;4396841;32;69410;-63
2023/09/06 07:00:41;;;;;;;6.50;4.45;;;;;;;;;;4396848;32;66794;-62
2023/09/06 07:03:29;;;;;;;6.28;4.18;;;;;;;;;;4397828;32;70860;-64
2023/09/06 07:06:15;;;;;;;7.40;4.57;;;;;;;;;;4397599;32;64739;-62
2023/09/06 07:09:05;;;;;;;6.62;4.32;;;;;;;;;;4385447;32;67810;-63
2023/09/06 07:11:51;;;;;;;5.90;4.05;;;;;;;;;;4398259;32;60515;-63
2023/09/06 07:14:37;;;;;;;6.75;4.80;;;;;;;;;;4385666;32;69786;-63
2023/09/06 07:17:24;;;;;;;;;;;;;;;;;;4398132;32;69353;-63
2023/09/06 07:20:13;;;;;;;5.93;4.43;;;;;;;;;;4386041;32;68125;-62
2023/09/06 07:23:00;;;;;;;7.18;4.93;;;;;;;;;;4364228;32;59604;-63
2023/09/06 07:25:51;;;;;;;7.90;4.20;;;;;;;;;;4395890;32;71318;-63
2023/09/06 07:28:43;;;;;;;8.48;4.87;;;;;;;;;;4395759;32;71118;-63
2023/09/06 07:31:33;;;;;;;7.15;4.12;;;;;;;;;;4396258;32;67638;-64
2023/09/06 07:34:20;;;;;;;;;;;;;;;;;;4396709;32;70639;-63
2023/09/06 07:37:06;;;;;;;8.10;4.70;;;;;;;;;;4397703;32;65340;-63
2023/09/06 07:39:55;;;;;;;7.03;4.65;;;;;;;;;;4384961;32;68415;-64
2023/09/06 07:42:42;;;;;;;7.45;4.68;;;;;;;;;;4397916;32;60541;-64
2023/09/06 07:45:29;;;;;;;6.50;4.18;;;;;;;;;;4385219;32;72535;-63
2023/09/06 07:48:15;;;;;;;9.90;4.80;;;;;;;;;;4385196;32;67298;-62
2023/09/06 07:51:05;;;;;;;6.28;4.55;;;;;;;;;;4396379;32;67936;-63
2023/09/06 07:53:55;;;;;;;13.18;6.10;;;;;;;;;;4399213;32;59345;-62
2023/09/06 07:56:44;;;;;;;6.32;3.90;;;;;;;;;;4388297;32;70339;-64
2023/09/06 07:59:30;;;;;;;6.35;4.18;;;;;;;;;;4387570;32;70593;-63
2023/09/06 08:02:18;;;;;;;6.10;4.28;;;;;;;;;;4398781;32;66769;-64
2023/09/06 08:05:04;;;;;;;;;;;;;;;;;;4399555;32;70979;-64
2023/09/06 08:07:51;;;;;;;4.32;3.30;;;;;;;;;;4401271;32;69045;-64
2023/09/06 08:10:39;;;;;;;6.05;4.15;;;;;;;;;;4388543;32;69539;-63
2023/09/06 08:13:31;;;;;;;5.50;3.80;;;;;;;;;;4398812;32;66402;-62
2023/09/06 08:16:19;;;;;;;5.90;3.60;;;;;;;;;;4388674;32;71869;-67
2023/09/06 08:19:05;;;;;;;6.72;3.40;;;;;;;;;;4400303;32;66014;-64
2023/09/06 08:21:51;;;;;;;;;;;;;;;;;;4389881;32;67773;-63
2023/09/06 08:24:37;;;;;;;6.18;4.10;;;;;;;;;;4402169;32;60130;-63
2023/09/06 08:27:27;;;;;;;5.18;3.90;;;;;;;;;;4400204;32;70936;-63
2023/09/06 08:30:14;;;;;;;;;;;;;;;;;;4401408;32;69462;-63
2023/09/06 08:33:03;;;;;;;5.87;4.30;;;;;;;;;;4399609;32;67156;-63
2023/09/06 08:35:50;;;;;;;6.40;3.90;;;;;;;;;;4390945;32;60109;-65
2023/09/06 08:38:36;;;;;;;;;;;;;;;;;;4377875;32;70658;-63
2023/09/06 08:41:22;;;;;;;6.45;3.65;;;;;;;;;;4400403;32;69850;-64
2023/09/06 08:44:09;;;;;;;;;;;;;;;;;;4379088;32;68827;-64
2023/09/06 08:46:58;;;;;;;4.87;3.65;;;;;;;;;;4401123;32;71143;-64
2023/09/06 08:49:47;;;;;;;6.15;4.00;;;;;;;;;;4388015;32;67279;-63
2023/09/06 08:52:34;;;;;;;7.37;3.62;;;;;;;;;;4376511;32;68738;-64
2023/09/06 08:55:21;;;;;;;7.15;3.90;;;;;;;;;;4377172;32;59099;-64
2023/09/06 08:58:11;;;;;;;5.65;3.50;;;;;;;;;;4398282;32;71719;-64
2023/09/06 09:00:57;;;;;;;5.05;3.87;;;;;;;;;;4398131;32;64949;-63
2023/09/06 09:03:44;;;;;;;5.15;3.55;;;;;;;;;;4387114;32;68150;-63
2023/09/06 09:06:31;;;;;;;5.57;3.85;;;;;;;;;;4376697;32;62297;-63
2023/09/06 09:09:19;;;;;;;8.13;4.60;;;;;;;;;;4398584;32;70508;-63
2023/09/06 09:12:06;;;;;;;4.95;3.67;;;;;;;;;;4376357;32;71505;-63
2023/09/06 09:14:54;;;;;;;5.32;3.47;;;;;;;;;;4390003;32;67264;-64
2023/09/06 09:17:42;;;;;;;6.00;4.15;;;;;;;;;;4393964;32;70708;-63
2023/09/06 09:20:31;;;;;;;4.80;3.87;;;;;;;;;;4404117;32;65546;-64
2023/09/06 09:23:18;;;;;;;7.55;4.18;;;;;;;;;;4408085;32;68263;-63
2023/09/06 09:26:04;;;;;;;;;;;;;;;;;;4398166;32;67782;-64
2023/09/06 09:28:51;;;;;;;6.78;4.22;;;;;;;;;;4401839;32;71303;-63
2023/09/06 09:31:40;;;;;;;7.07;4.78;;;;;;;;;;4388560;32;65960;-63
2023/09/06 09:34:27;;;;;;;;;;;;;;;;;;4399096;32;67925;-62
2023/09/06 09:37:15;;;;;;;5.87;3.95;;;;;;;;;;4388551;32;59758;-64
2023/09/06 09:40:18;;;;;;;;;;;;;;;;;;4398576;32;70561;-62
2023/09/06 09:43:06;;;;;;;8.45;4.10;;;;;;;;;;4387524;32;69631;-63
2023/09/06 09:45:53;;;;;;;6.00;4.07;;;;;;;;;;4386703;32;67623;-63
2023/09/06 09:48:40;;;;;;;;;;;;;;;;;;4398216;32;59075;-64
2023/09/06 09:51:27;;;;;;;6.85;4.62;;;;;;;;;;4387226;32;69981;-63
2023/09/06 09:54:13;;;;;;;6.30;4.07;;;;;;;;;;4398820;32;69609;-62
2023/09/06 09:57:04;;;;;;;4.62;3.58;;;;;;;;;;4399747;32;67754;-63
2023/09/06 09:59:54;;;;;;;5.95;3.75;;;;;;;;;;4386652;32;72112;-64
2023/09/06 10:02:46;;;;;;;7.50;3.78;;;;;;;;;;4398793;32;66021;-63
2023/09/06 10:05:39;;;;;;;6.78;3.70;;;;;;;;;;4397052;32;68020;-63
2023/09/06 10:08:25;;;;;;;5.90;3.90;;;;;;;;;;4397470;32;59364;-63
2023/09/06 10:11:16;;;;;;;6.82;3.80;;;;;;;;;;4397196;32;70791;-63
2023/09/06 10:14:04;;;;;;;5.00;3.60;;;;;;;;;;4397135;32;65916;-63
2023/09/06 10:16:52;;;;;;;6.80;4.10;;;;;;;;;;4385710;32;68122;-63
2023/09/06 10:19:39;;;;;;;5.80;3.95;;;;;;;;;;4386704;32;59255;-64
2023/09/06 10:22:28;;;;;;;10.65;4.37;;;;;;;;;;4398128;32;69383;-63
2023/09/06 10:25:15;;;;;;;5.15;3.70;;;;;;;;;;4397034;32;69163;-63
2023/09/06 10:28:03;;;;;;;5.57;3.50;;;;;;;;;;4386312;32;66973;-64
2023/09/06 10:31:07;;;;;;;6.07;3.90;;;;;;;;;;4396969;32;70863;-63
2023/09/06 10:33:57;;;;;;;4.70;3.58;;;;;;;;;;4387138;32;65907;-64
2023/09/06 10:37:07;;;;;;;6.05;3.28;;;;;;;;;;4398234;32;69287;-63
2023/09/06 10:39:56;;;;;;;5.32;3.40;;;;;;;;;;4397000;32;66598;-63
2023/09/06 10:42:45;;;;;;;5.03;3.30;;;;;;;;;;4398242;32;71650;-63
2023/09/06 10:45:40;;;;;;;5.65;3.53;;;;;;;;;;4396456;32;67135;-63
2023/09/06 10:48:26;;;;;;;5.47;3.50;;;;;;;;;;4396908;32;67054;-64
2023/09/06 10:51:14;;;;;;;4.82;3.47;;;;;;;;;;4386032;32;59315;-62
2023/09/06 10:54:02;;;;;;;5.60;3.80;;;;;;;;;;4396349;32;71264;-63
2023/09/06 10:56:58;;;;;;;6.10;3.83;;;;;;;;;;4396876;32;69213;-63
2023/09/06 10:59:57;;;;;;;5.80;3.70;;;;;;;;;;4396789;32;67743;-63
2023/09/06 11:03:04;;;;;;;6.85;4.00;;;;;;;;;;4397089;32;60408;-63
2023/09/06 11:05:54;;;;;;;4.43;3.42;;;;;;;;;;4396160;32;70389;-63
2023/09/06 11:08:41;;;;;;;6.40;3.42;;;;;;;;;;4396071;32;66722;-64
2023/09/06 11:11:30;;;;;;;5.25;3.80;;;;;;;;;;4386212;32;67524;-63
2023/09/06 11:14:16;;;;;;;;;;;;;;;;;;4396824;32;71686;-63
2023/09/06 11:17:03;;;;;;;5.05;3.78;;;;;;;;;;4396540;32;65045;-63
2023/09/06 11:19:52;;;;;;;6.00;3.80;;;;;;;;;;4384721;32;68642;-64
2023/09/06 11:22:47;;;;;;;5.05;3.47;;;;;;;;;;4397937;32;60154;-64
2023/09/06 11:25:33;;;;;;;5.72;3.50;;;;;;;;;;4396540;32;69630;-64
2023/09/06 11:28:21;;;;;;;;;;;;;;;;;;4386489;32;66764;-63
2023/09/06 11:31:18;;;;;;;;;;;;;;;;;;4400891;32;68192;-63
2023/09/06 11:34:08;;;;;;;5.45;3.83;;;;;;;;;;4377715;32;60511;-62
2023/09/06 11:36:56;;;;;;;6.12;4.07;;;;;;;;;;4399151;32;70425;-63
2023/09/06 11:39:46;;;;;;;6.43;4.25;;;;;;;;;;4388014;32;69627;-63
2023/09/06 11:42:34;;;;;;;4.80;3.37;;;;;;;;;;4400265;32;67441;-63
2023/09/06 11:45:22;;;;;;;4.80;3.58;;;;;;;;;;4387794;32;71279;-63
2023/09/06 11:48:10;;;;;;;5.40;3.62;;;;;;;;;;4388555;32;64874;-64
2023/09/06 11:51:08;;;;;;;5.32;3.60;;;;;;;;;;4388183;32;68054;-64
2023/09/06 11:54:00;;;;;;;5.55;3.50;;;;;;;;;;4400159;32;66996;-64
2023/09/06 11:56:47;;;;;;;8.48;4.10;;;;;;;;;;4398323;32;72782;-63
2023/09/06 11:59:37;;;;;;;6.80;4.30;;;;;;;;;;4400311;32;65842;-62
2023/09/06 12:02:29;;;;;;;5.90;3.60;;;;;;;;;;4388063;32;67173;-63
2023/09/06 12:05:16;;;;;;;6.15;4.03;;;;;;;;;;4399251;32;60111;-62
2023/09/06 12:08:05;;;;;;;6.32;3.80;;;;;;;;;;4376919;32;71471;-63
2023/09/06 12:11:05;;;;;;;6.28;3.90;;;;;;;;;;4387732;32;66850;-63
2023/09/06 12:13:59;;;;;;;6.60;4.03;;;;;;;;;;4389960;32;67962;-62
2023/09/06 12:16:52;;;;;;;6.00;3.60;;;;;;;;;;4398426;32;72277;-64
2023/09/06 12:19:38;;;;;;;6.70;3.90;;;;;;;;;;4400070;32;69677;-63
2023/09/06 12:22:25;;;;;;;6.43;3.80;;;;;;;;;;4399770;32;69790;-63
2023/09/06 12:25:14;;;;;;;6.50;3.72;;;;;;;;;;4387873;32;66704;-64
2023/09/06 12:28:01;;;;;;;7.18;4.03;;;;;;;;;;4399740;32;71587;-63
2023/09/06 12:30:53;;;;;;;6.20;4.05;;;;;;;;;;4399824;32;65005;-63
2023/09/06 12:33:40;;;;;;;5.35;3.72;;;;;;;;;;4388533;32;67664;-63
2023/09/06 12:36:27;;;;;;;;;;;;;;;;;;4376782;32;61319;-63
2023/09/06 12:39:18;;;;;;;4.82;3.58;;;;;;;;;;4397581;32;71028;-63
2023/09/06 12:42:07;;;;;;;5.10;3.80;;;;;;;;;;4398493;32;69401;-63
2023/09/06 12:44:57;;;;;;;4.45;3.60;;;;;;;;;;4388552;32;67269;-63
2023/09/06 12:47:43;;;;;;;;;;;;;;;;;;4387549;32;60740;-63
2023/09/06 12:50:30;;;;;;;5.37;3.67;;;;;;;;;;4399687;32;70024;-64
2023/09/06 12:53:16;;;;;;;5.75;3.75;;;;;;;;;;4398423;32;68333;-64
2023/09/06 12:56:07;;;;;;;4.62;3.70;;;;;;;;;;4399462;32;66831;-63
2023/09/06 12:58:55;;;;;;;6.18;3.67;;;;;;;;;;4397974;32;71647;-62
2023/09/06 13:01:44;;;;;;;5.22;3.42;;;;;;;;;;4399207;32;64637;-64
2023/09/06 13:04:31;;;;;;;6.55;3.90;;;;;;;;;;4397863;32;69290;-63
2023/09/06 13:07:17;;;;;;;5.87;3.72;;;;;;;;;;4397994;32;67846;-64
2023/09/06 13:10:05;;;;;;;5.53;4.20;;;;;;;;;;4397449;32;72882;-64
2023/09/06 13:12:53;;;;;;;4.82;3.40;;;;;;;;;;4387475;32;65151;-63
2023/09/06 13:15:41;;;;;;;5.53;3.85;;;;;;;;;;4399405;32;68174;-63
2023/09/06 13:18:28;;;;;;;5.93;3.62;;;;;;;;;;4398214;32;60197;-64
2023/09/06 13:21:14;;;;;;;6.62;3.58;;;;;;;;;;4397760;32;70586;-63
2023/09/06 13:24:01;;;;;;;4.97;4.03;;;;;;;;;;4397729;32;68215;-65
2023/09/06 13:26:49;;;;;;;5.15;3.60;;;;;;;;;;4397416;32;68684;-63
2023/09/06 13:29:39;;;;;;;6.00;4.03;;;;;;;;;;4397969;32;71506;-64
2023/09/06 13:32:25;;;;;;;4.80;3.20;;;;;;;;;;4397577;32;69629;-63
2023/09/06 13:35:12;;;;;;;5.68;3.80;;;;;;;;;;4386899;32;69342;-63
2023/09/06 13:38:01;;;;;;;5.72;4.57;;;;;;;;;;4398764;32;67527;-63
2023/09/06 13:40:50;;;;;;;4.85;3.45;;;;;;;;;;4398691;32;71493;-62
2023/09/06 13:43:39;;;;;;;5.93;3.95;;;;;;;;;;4399124;32;64959;-63
2023/09/06 13:46:29;;;;;;;6.43;3.92;;;;;;;;;;4397467;32;68017;-63
2023/09/06 13:49:15;;;;;;;6.43;4.05;;;;;;;;;;4397780;32;59237;-62
2023/09/06 13:52:08;;;;;;;5.25;3.75;;;;;;;;;;4386154;32;69677;-63
2023/09/06 13:54:56;;;;;;;6.12;4.00;;;;;;;;;;4397161;32;68147;-63
2023/09/06 13:57:46;;;;;;;5.85;3.95;;;;;;;;;;4398759;32;68256;-64
2023/09/06 14:00:32;;;;;;;6.78;3.70;;;;;;;;;;4398856;32;58871;-64
2023/09/06 14:03:19;;;;;;;5.12;3.78;;;;;;;;;;4397337;32;70034;-63
2023/09/06 14:06:05;;;;;;;;;;;;;;;;;;4398666;32;68877;-64
2023/09/06 14:08:54;;;;;;;5.12;3.47;;;;;;;;;;4386723;32;67123;-63
2023/09/06 14:11:41;;;;;;;5.62;3.78;;;;;;;;;;4386589;32;71920;-66
2023/09/06 14:14:33;;;;;;;5.30;3.72;;;;;;;;;;4397318;32;64750;-63
2023/09/06 14:17:19;;;;;;;6.37;4.07;;;;;;;;;;4397815;32;68146;-64
2023/09/06 14:20:08;;;;;;;;;;;;;;;;;;4397915;32;60098;-63
2023/09/06 14:23:00;;;;;;;6.00;3.75;;;;;;;;;;4386545;32;70481;-64
2023/09/06 14:25:49;;;;;;;5.45;3.58;;;;;;;;;;4397365;32;65119;-64
2023/09/06 14:28:37;;;;;;;7.05;4.20;;;;;;;;;;4376415;32;67764;-64
2023/09/06 14:31:26;;;;;;;5.97;3.80;;;;;;;;;;4386179;32;60801;-64
2023/09/06 14:34:15;;;;;;;6.25;3.80;;;;;;;;;;4386238;32;70593;-64
2023/09/06 14:37:07;;;;;;;5.40;3.92;;;;;;;;;;4396527;32;70311;-63
2023/09/06 14:39:56;;;;;;;6.15;4.20;;;;;;;;;;4397140;32;67008;-62
2023/09/06 14:42:56;;;;;;;5.25;3.90;;;;;;;;;;4398169;32;71798;-63
2023/09/06 14:45:42;;;;;;;6.55;4.35;;;;;;;;;;4385933;32;67007;-62
2023/09/06 14:48:29;;;;;;;;;;;;;;;;;;4398471;32;69580;-63
2023/09/06 14:51:18;;;;;;;6.43;4.20;;;;;;;;;;4386798;32;66856;-63
2023/09/06 14:54:08;;;;;;;7.80;4.62;;;;;;;;;;4398204;32;71709;-64
2023/09/06 14:56:57;;;;;;;6.72;4.47;;;;;;;;;;4398265;32;65945;-64
2023/09/06 14:59:47;;;;;;;7.18;4.10;;;;;;;;;;4396697;32;68216;-63
2023/09/06 15:02:35;;;;;;;10.82;5.05;;;;;;;;;;4397847;32;59526;-63
2023/09/06 15:05:22;;;;;;;8.50;5.30;;;;;;;;;;4385031;32;71343;-64
2023/09/06 15:08:11;;;;;;;8.02;4.85;;;;;;;;;;4397921;32;68262;-62
2023/09/06 15:11:03;;;;;;;10.50;5.37;;;;;;;;;;4396312;32;67615;-63
2023/09/06 15:13:49;;;;;;;9.93;5.60;;;;;;;;;;4397917;32;59171;-64
2023/09/06 15:16:36;;;;;;;12.15;7.15;;;;;;;;;;4397679;32;70880;-63
2023/09/06 15:19:25;;;;;;;13.75;6.93;;;;;;;;;;4395978;32;70363;-63
2023/09/06 15:22:14;;;;;;;11.93;7.07;;;;;;;;;;4397574;32;67483;-63
2023/09/06 15:25:03;;;;;;;11.02;7.45;;;;;;;;;;4396434;32;70905;-63
2023/09/06 15:27:52;;;;;;;12.50;6.57;;;;;;;;;;4396845;32;65702;-64
2023/09/06 15:30:43;;;;;;;14.35;7.03;;;;;;;;;;4386359;32;67944;-64
2023/09/06 15:33:29;;;;;;;12.77;7.97;;;;;;;;;;4385959;32;60273;-64
2023/09/06 15:36:16;;;;;;;14.13;7.78;;;;;;;;;;4385078;32;71318;-63
2023/09/06 15:39:02;;;;;;;;;;;;;;;;;;4386104;32;64836;-62
2023/09/06 15:41:53;;;;;;;10.20;6.05;;;;;;;;;;4396046;32;68927;-62
2023/09/06 15:44:43;;;;;;;11.45;6.70;;;;;;;;;;4397860;32;60152;-63
2023/09/06 15:47:29;;;;;;;12.02;6.25;;;;;;;;;;4396351;32;69771;-62
2023/09/06 15:50:19;;;;;;;9.40;5.57;;;;;;;;;;4386003;32;69297;-63
2023/09/06 15:53:06;;;;;;;9.50;6.47;;;;;;;;;;4397743;32;67855;-62
2023/09/06 15:55:52;;;;;;;9.43;4.97;;;;;;;;;;4396842;32;71655;-62
2023/09/06 15:58:39;;;;;;;7.90;5.12;;;;;;;;;;4396856;32;64976;-62
2023/09/06 16:01:27;;;;;;;7.70;4.55;;;;;;;;;;4398189;32;69068;-62
2023/09/06 16:04:18;;;;;;;9.55;5.20;;;;;;;;;;4397808;32;67015;-62
2023/09/06 16:07:05;;;;;;;8.07;5.10;;;;;;;;;;4396064;32;71708;-63
2023/09/06 16:09:51;;;;;;;;;;;;;;;;;;4397102;32;65865;-62
2023/09/06 16:12:38;;;;;;;7.40;5.00;;;;;;;;;;4385971;32;67913;-63
2023/09/06 16:15:24;;;;;;;;;;;;;;;;;;4399642;32;59160;-62
2023/09/06 16:18:12;;;;;;;8.63;5.07;;;;;;;;;;4388493;32;70423;-63
2023/09/06 16:20:58;;;;;;;9.35;5.55;;;;;;;;;;4399576;32;69441;-63
2023/09/06 16:23:45;;;;;;;10.00;5.32;;;;;;;;;;4388446;32;66441;-62
2023/09/06 16:26:32;;;;;;;10.02;5.62;;;;;;;;;;4399601;32;61335;-62
2023/09/06 16:29:19;;;;;;;10.38;6.28;;;;;;;;;;4388527;32;69194;-63
2023/09/06 16:32:07;;;;;;;10.63;6.50;;;;;;;;;;4387975;32;70098;-63
2023/09/06 16:34:53;;;;;;;11.57;6.62;;;;;;;;;;4389415;32;67766;-63
2023/09/06 16:37:41;;;;;;;10.52;6.32;;;;;;;;;;4399917;32;71710;-63
2023/09/06 16:40:30;;;;;;;10.27;6.15;;;;;;;;;;4401126;32;65098;-67
2023/09/06 16:43:17;;;;;;;11.10;6.65;;;;;;;;;;4411193;32;67203;-62
2023/09/06 16:46:04;;;;;;;9.82;6.00;;;;;;;;;;4419024;32;59252;-63
2023/09/06 16:48:53;;;;;;;9.18;6.30;;;;;;;;;;4410234;32;69754;-63
2023/09/06 16:51:39;;;;;;;11.57;6.37;;;;;;;;;;4409077;32;66239;-63
2023/09/06 16:54:29;;;;;;;9.32;6.07;;;;;;;;;;4413852;32;67355;-62
2023/09/06 16:57:20;;;;;;;10.02;6.30;;;;;;;;;;4413466;32;58184;-64
2023/09/06 17:00:13;;;;;;;11.63;6.25;;;;;;;;;;4404052;32;69465;-66
2023/09/06 17:03:01;;;;;;;10.00;6.10;;;;;;;;;;4418203;32;68594;-62
2023/09/06 17:05:51;;;;;;;9.45;6.28;;;;;;;;;;4416500;32;67234;-64
2023/09/06 17:08:37;;;;;;;10.00;5.28;;;;;;;;;;4418795;32;72163;-64